sensor_id;sensor_type;location;lat;lon;timestamp;P1;durP1;ratioP1;P2;durP2;ratioP2
77085;SDS011;66014;53.134;18.006;2023-07-24T00:02:18;4.70;;;2.50;;
77085;SDS011;66014;53.134;18.006;2023-07-24T00:04:43;5.60;;;3.20;;
77085;SDS011;66014;53.134;18.006;2023-07-24T00:07:09;6.10;;;2.30;;
77085;SDS011;66014;53.134;18.006;2023-07-24T00:09:35;5.70;;;2.90;;
77085;SDS011;66014;53.134;18.006;2023-07-24T00:12:01;4.50;;;2.50;;
77085;SDS011;66014;53.134;18.006;2023-07-24T00:14:26;4.20;;;2.30;;
77085;SDS011;66014;53.134;18.006;2023-07-24T00:16:52;4.90;;;2.50;;
77085;SDS011;66014;53.134;18.006;2023-07-24T00:19:18;6.10;;;2.80;;
77085;SDS011;66014;53.134;18.006;2023-07-24T00:21:47;5.70;;;2.80;;
77085;SDS011;66014;53.134;18.006;2023-07-24T00:24:13;6.50;;;2.60;;
77085;SDS011;66014;53.134;18.006;2023-07-24T00:26:39;5.10;;;2.50;;
77085;SDS011;66014;53.134;18.006;2023-07-24T00:29:04;5.50;;;2.70;;
77085;SDS011;66014;53.134;18.006;2023-07-24T00:31:30;5.80;;;3.10;;
77085;SDS011;66014;53.134;18.006;2023-07-24T00:33:56;5.40;;;2.70;;
77085;SDS011;66014;53.134;18.006;2023-07-24T00:36:22;3.90;;;2.20;;
77085;SDS011;66014;53.134;18.006;2023-07-24T00:38:48;4.90;;;2.60;;
77085;SDS011;66014;53.134;18.006;2023-07-24T00:41:13;5.40;;;2.90;;
77085;SDS011;66014;53.134;18.006;2023-07-24T00:43:40;5.00;;;2.60;;
77085;SDS011;66014;53.134;18.006;2023-07-24T00:46:06;4.50;;;2.50;;
77085;SDS011;66014;53.134;18.006;2023-07-24T00:48:32;5.70;;;2.60;;
77085;SDS011;66014;53.134;18.006;2023-07-24T00:50:58;4.30;;;2.40;;
77085;SDS011;66014;53.134;18.006;2023-07-24T00:53:25;5.70;;;2.50;;
77085;SDS011;66014;53.134;18.006;2023-07-24T00:55:51;7.40;;;2.50;;
77085;SDS011;66014;53.134;18.006;2023-07-24T00:58:18;5.10;;;2.40;;
77085;SDS011;66014;53.134;18.006;2023-07-24T01:00:45;6.30;;;2.70;;
77085;SDS011;66014;53.134;18.006;2023-07-24T01:03:11;6.00;;;2.90;;
77085;SDS011;66014;53.134;18.006;2023-07-24T01:05:38;4.30;;;2.50;;
77085;SDS011;66014;53.134;18.006;2023-07-24T01:08:04;4.50;;;2.60;;
77085;SDS011;66014;53.134;18.006;2023-07-24T01:10:30;6.50;;;2.60;;
77085;SDS011;66014;53.134;18.006;2023-07-24T01:15:29;4.60;;;2.40;;
77085;SDS011;66014;53.134;18.006;2023-07-24T01:18:11;5.80;;;2.90;;
77085;SDS011;66014;53.134;18.006;2023-07-24T01:20:50;5.70;;;2.70;;
77085;SDS011;66014;53.134;18.006;2023-07-24T01:25:56;5.10;;;2.60;;
77085;SDS011;66014;53.134;18.006;2023-07-24T01:28:25;4.80;;;2.60;;
77085;SDS011;66014;53.134;18.006;2023-07-24T01:30:51;4.90;;;2.50;;
77085;SDS011;66014;53.134;18.006;2023-07-24T01:33:17;5.30;;;2.90;;
77085;SDS011;66014;53.134;18.006;2023-07-24T01:35:50;5.40;;;2.90;;
77085;SDS011;66014;53.134;18.006;2023-07-24T01:38:21;6.20;;;2.70;;
77085;SDS011;66014;53.134;18.006;2023-07-24T01:40:50;4.90;;;2.60;;
77085;SDS011;66014;53.134;18.006;2023-07-24T01:43:17;10.00;;;2.90;;
77085;SDS011;66014;53.134;18.006;2023-07-24T01:45:43;5.90;;;2.80;;
77085;SDS011;66014;53.134;18.006;2023-07-24T01:48:09;5.30;;;2.60;;
77085;SDS011;66014;53.134;18.006;2023-07-24T01:50:35;5.90;;;2.50;;
77085;SDS011;66014;53.134;18.006;2023-07-24T01:53:00;5.10;;;2.50;;
77085;SDS011;66014;53.134;18.006;2023-07-24T01:55:26;5.30;;;2.30;;
77085;SDS011;66014;53.134;18.006;2023-07-24T01:57:52;5.20;;;2.40;;
77085;SDS011;66014;53.134;18.006;2023-07-24T02:00:18;5.00;;;2.30;;
77085;SDS011;66014;53.134;18.006;2023-07-24T02:02:43;7.80;;;2.80;;
77085;SDS011;66014;53.134;18.006;2023-07-24T02:05:09;5.20;;;2.30;;
77085;SDS011;66014;53.134;18.006;2023-07-24T02:07:35;6.10;;;2.40;;
77085;SDS011;66014;53.134;18.006;2023-07-24T02:10:01;4.90;;;2.30;;
77085;SDS011;66014;53.134;18.006;2023-07-24T02:12:27;5.90;;;2.10;;
77085;SDS011;66014;53.134;18.006;2023-07-24T02:14:52;6.10;;;2.40;;
77085;SDS011;66014;53.134;18.006;2023-07-24T02:17:19;5.10;;;2.50;;
77085;SDS011;66014;53.134;18.006;2023-07-24T02:19:44;6.20;;;2.40;;
77085;SDS011;66014;53.134;18.006;2023-07-24T02:22:10;4.60;;;2.40;;
77085;SDS011;66014;53.134;18.006;2023-07-24T02:24:36;5.80;;;2.50;;
77085;SDS011;66014;53.134;18.006;2023-07-24T02:27:02;5.60;;;2.70;;
77085;SDS011;66014;53.134;18.006;2023-07-24T02:29:28;6.20;;;2.20;;
77085;SDS011;66014;53.134;18.006;2023-07-24T02:31:54;5.20;;;2.50;;
77085;SDS011;66014;53.134;18.006;2023-07-24T02:34:20;5.80;;;2.10;;
77085;SDS011;66014;53.134;18.006;2023-07-24T02:36:52;5.50;;;2.50;;
77085;SDS011;66014;53.134;18.006;2023-07-24T02:39:19;5.20;;;2.60;;
77085;SDS011;66014;53.134;18.006;2023-07-24T02:41:45;5.00;;;2.20;;
77085;SDS011;66014;53.134;18.006;2023-07-24T02:44:14;6.10;;;2.70;;
77085;SDS011;66014;53.134;18.006;2023-07-24T02:46:40;4.70;;;2.00;;
77085;SDS011;66014;53.134;18.006;2023-07-24T02:49:07;5.10;;;2.40;;
77085;SDS011;66014;53.134;18.006;2023-07-24T02:51:32;5.10;;;2.70;;
77085;SDS011;66014;53.134;18.006;2023-07-24T02:53:58;5.10;;;2.40;;
77085;SDS011;66014;53.134;18.006;2023-07-24T02:56:24;6.70;;;2.70;;
77085;SDS011;66014;53.134;18.006;2023-07-24T02:58:50;5.30;;;2.30;;
77085;SDS011;66014;53.134;18.006;2023-07-24T03:01:16;5.00;;;2.50;;
77085;SDS011;66014;53.134;18.006;2023-07-24T03:03:42;5.20;;;2.40;;
77085;SDS011;66014;53.134;18.006;2023-07-24T03:06:08;5.50;;;2.30;;
77085;SDS011;66014;53.134;18.006;2023-07-24T03:08:33;5.10;;;2.50;;
77085;SDS011;66014;53.134;18.006;2023-07-24T03:10:59;4.80;;;2.20;;
77085;SDS011;66014;53.134;18.006;2023-07-24T03:13:27;5.10;;;2.50;;
77085;SDS011;66014;53.134;18.006;2023-07-24T03:15:55;6.40;;;2.20;;
77085;SDS011;66014;53.134;18.006;2023-07-24T03:18:22;4.10;;;2.00;;
77085;SDS011;66014;53.134;18.006;2023-07-24T03:20:48;4.00;;;2.20;;
77085;SDS011;66014;53.134;18.006;2023-07-24T03:23:14;4.30;;;2.40;;
77085;SDS011;66014;53.134;18.006;2023-07-24T03:25:40;6.50;;;2.60;;
77085;SDS011;66014;53.134;18.006;2023-07-24T03:28:06;5.00;;;2.70;;
77085;SDS011;66014;53.134;18.006;2023-07-24T03:30:32;7.50;;;2.60;;
77085;SDS011;66014;53.134;18.006;2023-07-24T03:32:58;5.30;;;2.60;;
77085;SDS011;66014;53.134;18.006;2023-07-24T03:35:24;6.30;;;2.40;;
77085;SDS011;66014;53.134;18.006;2023-07-24T03:37:49;5.60;;;2.20;;
77085;SDS011;66014;53.134;18.006;2023-07-24T03:40:15;5.50;;;2.20;;
77085;SDS011;66014;53.134;18.006;2023-07-24T03:42:41;5.00;;;2.30;;
77085;SDS011;66014;53.134;18.006;2023-07-24T03:45:07;6.00;;;2.10;;
77085;SDS011;66014;53.134;18.006;2023-07-24T03:47:33;6.10;;;2.60;;
77085;SDS011;66014;53.134;18.006;2023-07-24T03:49:59;5.90;;;2.50;;
77085;SDS011;66014;53.134;18.006;2023-07-24T03:52:25;3.90;;;2.00;;
77085;SDS011;66014;53.134;18.006;2023-07-24T03:54:52;5.40;;;2.20;;
77085;SDS011;66014;53.134;18.006;2023-07-24T03:57:18;4.50;;;2.40;;
77085;SDS011;66014;53.134;18.006;2023-07-24T03:59:44;5.20;;;2.10;;
77085;SDS011;66014;53.134;18.006;2023-07-24T04:02:10;5.90;;;2.20;;
77085;SDS011;66014;53.134;18.006;2023-07-24T04:04:36;7.30;;;2.60;;
77085;SDS011;66014;53.134;18.006;2023-07-24T04:07:02;4.90;;;2.30;;
77085;SDS011;66014;53.134;18.006;2023-07-24T04:09:28;4.20;;;2.20;;
77085;SDS011;66014;53.134;18.006;2023-07-24T04:11:55;6.60;;;2.50;;
77085;SDS011;66014;53.134;18.006;2023-07-24T04:14:20;6.00;;;2.40;;
77085;SDS011;66014;53.134;18.006;2023-07-24T04:16:46;4.80;;;2.20;;
77085;SDS011;66014;53.134;18.006;2023-07-24T04:19:12;3.70;;;2.10;;
77085;SDS011;66014;53.134;18.006;2023-07-24T04:21:38;5.00;;;2.30;;
77085;SDS011;66014;53.134;18.006;2023-07-24T04:24:04;6.10;;;2.50;;
77085;SDS011;66014;53.134;18.006;2023-07-24T04:26:30;5.60;;;2.70;;
77085;SDS011;66014;53.134;18.006;2023-07-24T04:28:56;5.90;;;2.50;;
77085;SDS011;66014;53.134;18.006;2023-07-24T04:31:24;8.40;;;2.40;;
77085;SDS011;66014;53.134;18.006;2023-07-24T04:33:50;5.40;;;2.50;;
77085;SDS011;66014;53.134;18.006;2023-07-24T04:36:16;5.00;;;2.60;;
77085;SDS011;66014;53.134;18.006;2023-07-24T04:38:42;4.50;;;2.20;;
77085;SDS011;66014;53.134;18.006;2023-07-24T04:41:08;4.80;;;1.80;;
77085;SDS011;66014;53.134;18.006;2023-07-24T04:43:33;4.60;;;2.10;;
77085;SDS011;66014;53.134;18.006;2023-07-24T04:45:59;5.00;;;2.40;;
77085;SDS011;66014;53.134;18.006;2023-07-24T04:48:25;4.30;;;2.10;;
77085;SDS011;66014;53.134;18.006;2023-07-24T04:50:54;5.10;;;2.00;;
77085;SDS011;66014;53.134;18.006;2023-07-24T04:53:21;4.70;;;1.90;;
77085;SDS011;66014;53.134;18.006;2023-07-24T04:55:47;4.30;;;2.10;;
77085;SDS011;66014;53.134;18.006;2023-07-24T04:58:13;6.00;;;2.10;;
77085;SDS011;66014;53.134;18.006;2023-07-24T05:00:39;3.90;;;2.00;;
77085;SDS011;66014;53.134;18.006;2023-07-24T05:03:05;3.60;;;2.10;;
77085;SDS011;66014;53.134;18.006;2023-07-24T05:05:32;4.30;;;2.10;;
77085;SDS011;66014;53.134;18.006;2023-07-24T05:08:01;4.40;;;2.50;;
77085;SDS011;66014;53.134;18.006;2023-07-24T05:10:27;4.90;;;1.80;;
77085;SDS011;66014;53.134;18.006;2023-07-24T05:12:53;5.00;;;1.80;;
77085;SDS011;66014;53.134;18.006;2023-07-24T05:15:22;4.60;;;2.20;;
77085;SDS011;66014;53.134;18.006;2023-07-24T05:17:48;6.80;;;2.30;;
77085;SDS011;66014;53.134;18.006;2023-07-24T05:20:14;4.30;;;2.30;;
77085;SDS011;66014;53.134;18.006;2023-07-24T05:22:40;4.70;;;2.30;;
77085;SDS011;66014;53.134;18.006;2023-07-24T05:25:05;4.00;;;2.00;;
77085;SDS011;66014;53.134;18.006;2023-07-24T05:27:31;4.10;;;2.10;;
77085;SDS011;66014;53.134;18.006;2023-07-24T05:29:57;5.50;;;2.20;;
77085;SDS011;66014;53.134;18.006;2023-07-24T05:32:23;6.50;;;2.20;;
77085;SDS011;66014;53.134;18.006;2023-07-24T05:34:49;7.30;;;2.10;;
77085;SDS011;66014;53.134;18.006;2023-07-24T05:37:15;4.10;;;2.20;;
77085;SDS011;66014;53.134;18.006;2023-07-24T05:39:42;3.50;;;1.60;;
77085;SDS011;66014;53.134;18.006;2023-07-24T05:42:11;3.80;;;1.80;;
77085;SDS011;66014;53.134;18.006;2023-07-24T05:44:39;4.80;;;2.00;;
77085;SDS011;66014;53.134;18.006;2023-07-24T05:47:07;5.00;;;1.90;;
77085;SDS011;66014;53.134;18.006;2023-07-24T05:49:35;5.10;;;2.20;;
77085;SDS011;66014;53.134;18.006;2023-07-24T05:52:08;3.90;;;1.90;;
77085;SDS011;66014;53.134;18.006;2023-07-24T05:54:40;5.90;;;2.30;;
77085;SDS011;66014;53.134;18.006;2023-07-24T05:57:08;5.00;;;1.90;;
77085;SDS011;66014;53.134;18.006;2023-07-24T05:59:35;4.10;;;2.00;;
77085;SDS011;66014;53.134;18.006;2023-07-24T06:02:01;3.70;;;1.80;;
77085;SDS011;66014;53.134;18.006;2023-07-24T06:04:27;3.90;;;1.80;;
77085;SDS011;66014;53.134;18.006;2023-07-24T06:06:53;3.30;;;2.00;;
77085;SDS011;66014;53.134;18.006;2023-07-24T06:09:19;3.60;;;1.90;;
77085;SDS011;66014;53.134;18.006;2023-07-24T06:11:45;4.60;;;2.40;;
77085;SDS011;66014;53.134;18.006;2023-07-24T06:14:11;4.00;;;2.10;;
77085;SDS011;66014;53.134;18.006;2023-07-24T06:16:37;5.10;;;2.70;;
77085;SDS011;66014;53.134;18.006;2023-07-24T06:19:03;7.80;;;2.70;;
77085;SDS011;66014;53.134;18.006;2023-07-24T06:21:29;5.70;;;2.70;;
77085;SDS011;66014;53.134;18.006;2023-07-24T06:23:55;4.90;;;2.30;;
77085;SDS011;66014;53.134;18.006;2023-07-24T06:26:23;6.50;;;2.50;;
77085;SDS011;66014;53.134;18.006;2023-07-24T06:28:49;5.10;;;2.50;;
77085;SDS011;66014;53.134;18.006;2023-07-24T06:31:14;5.30;;;2.80;;
77085;SDS011;66014;53.134;18.006;2023-07-24T06:33:40;5.50;;;2.60;;
77085;SDS011;66014;53.134;18.006;2023-07-24T06:36:09;6.50;;;2.70;;
77085;SDS011;66014;53.134;18.006;2023-07-24T06:38:36;6.50;;;2.40;;
77085;SDS011;66014;53.134;18.006;2023-07-24T06:41:02;7.00;;;2.90;;
77085;SDS011;66014;53.134;18.006;2023-07-24T06:43:32;5.80;;;2.90;;
77085;SDS011;66014;53.134;18.006;2023-07-24T06:46:00;4.60;;;2.40;;
77085;SDS011;66014;53.134;18.006;2023-07-24T06:48:25;4.80;;;2.70;;
77085;SDS011;66014;53.134;18.006;2023-07-24T06:50:51;5.90;;;2.40;;
77085;SDS011;66014;53.134;18.006;2023-07-24T06:53:17;5.80;;;2.60;;
77085;SDS011;66014;53.134;18.006;2023-07-24T06:55:43;6.50;;;3.10;;
77085;SDS011;66014;53.134;18.006;2023-07-24T06:58:09;6.00;;;2.80;;
77085;SDS011;66014;53.134;18.006;2023-07-24T07:00:34;6.20;;;3.00;;
77085;SDS011;66014;53.134;18.006;2023-07-24T07:03:00;7.00;;;2.70;;
77085;SDS011;66014;53.134;18.006;2023-07-24T07:05:26;4.80;;;2.70;;
77085;SDS011;66014;53.134;18.006;2023-07-24T07:07:52;6.00;;;2.50;;
77085;SDS011;66014;53.134;18.006;2023-07-24T07:10:18;6.90;;;2.70;;
77085;SDS011;66014;53.134;18.006;2023-07-24T07:12:44;6.50;;;3.30;;
77085;SDS011;66014;53.134;18.006;2023-07-24T07:15:16;9.50;;;3.70;;
77085;SDS011;66014;53.134;18.006;2023-07-24T07:17:49;6.80;;;3.10;;
77085;SDS011;66014;53.134;18.006;2023-07-24T07:20:15;6.40;;;3.10;;
77085;SDS011;66014;53.134;18.006;2023-07-24T07:22:42;7.00;;;3.10;;
77085;SDS011;66014;53.134;18.006;2023-07-24T07:25:11;5.20;;;2.90;;
77085;SDS011;66014;53.134;18.006;2023-07-24T07:27:36;7.70;;;2.90;;
77085;SDS011;66014;53.134;18.006;2023-07-24T07:30:03;5.00;;;2.60;;
77085;SDS011;66014;53.134;18.006;2023-07-24T07:32:29;5.00;;;2.60;;
77085;SDS011;66014;53.134;18.006;2023-07-24T07:34:55;7.10;;;2.90;;
77085;SDS011;66014;53.134;18.006;2023-07-24T07:37:21;5.30;;;3.00;;
77085;SDS011;66014;53.134;18.006;2023-07-24T07:39:48;8.00;;;2.60;;
77085;SDS011;66014;53.134;18.006;2023-07-24T07:42:14;5.60;;;2.30;;
77085;SDS011;66014;53.134;18.006;2023-07-24T07:44:40;7.20;;;2.90;;
77085;SDS011;66014;53.134;18.006;2023-07-24T07:47:06;6.50;;;3.10;;
77085;SDS011;66014;53.134;18.006;2023-07-24T07:49:32;5.70;;;3.30;;
77085;SDS011;66014;53.134;18.006;2023-07-24T07:51:58;5.20;;;2.30;;
77085;SDS011;66014;53.134;18.006;2023-07-24T07:54:23;4.50;;;2.30;;
77085;SDS011;66014;53.134;18.006;2023-07-24T07:56:49;5.70;;;2.50;;
77085;SDS011;66014;53.134;18.006;2023-07-24T07:59:15;4.00;;;2.40;;
77085;SDS011;66014;53.134;18.006;2023-07-24T08:01:41;4.90;;;2.80;;
77085;SDS011;66014;53.134;18.006;2023-07-24T08:04:07;6.10;;;2.60;;
77085;SDS011;66014;53.134;18.006;2023-07-24T08:06:33;6.70;;;2.80;;
77085;SDS011;66014;53.134;18.006;2023-07-24T08:08:59;4.00;;;2.30;;
77085;SDS011;66014;53.134;18.006;2023-07-24T08:11:25;4.00;;;2.30;;
77085;SDS011;66014;53.134;18.006;2023-07-24T08:13:50;3.70;;;2.10;;
77085;SDS011;66014;53.134;18.006;2023-07-24T08:16:16;4.30;;;2.10;;
77085;SDS011;66014;53.134;18.006;2023-07-24T08:18:47;3.90;;;2.00;;
77085;SDS011;66014;53.134;18.006;2023-07-24T08:21:14;4.10;;;1.90;;
77085;SDS011;66014;53.134;18.006;2023-07-24T08:23:41;3.20;;;1.80;;
77085;SDS011;66014;53.134;18.006;2023-07-24T08:26:08;4.50;;;2.00;;
77085;SDS011;66014;53.134;18.006;2023-07-24T08:28:34;4.10;;;1.70;;
77085;SDS011;66014;53.134;18.006;2023-07-24T08:31:02;4.70;;;1.80;;
77085;SDS011;66014;53.134;18.006;2023-07-24T08:33:28;4.10;;;2.00;;
77085;SDS011;66014;53.134;18.006;2023-07-24T08:36:00;3.30;;;1.70;;
77085;SDS011;66014;53.134;18.006;2023-07-24T08:38:28;4.40;;;1.70;;
77085;SDS011;66014;53.134;18.006;2023-07-24T08:43:28;2.80;;;1.70;;
77085;SDS011;66014;53.134;18.006;2023-07-24T08:45:57;4.60;;;1.70;;
77085;SDS011;66014;53.134;18.006;2023-07-24T08:48:29;2.80;;;1.50;;
77085;SDS011;66014;53.134;18.006;2023-07-24T08:50:59;5.20;;;2.10;;
77085;SDS011;66014;53.134;18.006;2023-07-24T08:53:28;3.00;;;1.60;;
77085;SDS011;66014;53.134;18.006;2023-07-24T08:55:58;3.10;;;1.70;;
77085;SDS011;66014;53.134;18.006;2023-07-24T08:58:25;4.50;;;1.80;;
77085;SDS011;66014;53.134;18.006;2023-07-24T09:00:51;3.20;;;1.70;;
77085;SDS011;66014;53.134;18.006;2023-07-24T09:03:18;4.30;;;1.80;;
77085;SDS011;66014;53.134;18.006;2023-07-24T09:05:44;5.00;;;1.50;;
77085;SDS011;66014;53.134;18.006;2023-07-24T09:08:14;4.10;;;1.90;;
77085;SDS011;66014;53.134;18.006;2023-07-24T09:10:40;5.20;;;2.00;;
77085;SDS011;66014;53.134;18.006;2023-07-24T09:13:07;3.50;;;2.00;;
77085;SDS011;66014;53.134;18.006;2023-07-24T09:15:40;3.60;;;2.20;;
77085;SDS011;66014;53.134;18.006;2023-07-24T09:18:09;3.10;;;1.80;;
77085;SDS011;66014;53.134;18.006;2023-07-24T09:20:39;3.00;;;1.80;;
77085;SDS011;66014;53.134;18.006;2023-07-24T09:23:06;2.80;;;1.50;;
77085;SDS011;66014;53.134;18.006;2023-07-24T09:25:35;3.60;;;1.80;;
77085;SDS011;66014;53.134;18.006;2023-07-24T09:28:08;5.40;;;1.90;;
77085;SDS011;66014;53.134;18.006;2023-07-24T09:30:35;4.60;;;1.90;;
77085;SDS011;66014;53.134;18.006;2023-07-24T09:33:02;3.90;;;2.00;;
77085;SDS011;66014;53.134;18.006;2023-07-24T09:35:27;6.60;;;2.10;;
77085;SDS011;66014;53.134;18.006;2023-07-24T09:38:02;2.70;;;1.70;;
77085;SDS011;66014;53.134;18.006;2023-07-24T09:40:52;3.40;;;1.60;;
77085;SDS011;66014;53.134;18.006;2023-07-24T09:43:22;3.50;;;1.70;;
77085;SDS011;66014;53.134;18.006;2023-07-24T09:45:50;3.50;;;1.70;;
77085;SDS011;66014;53.134;18.006;2023-07-24T09:48:17;3.50;;;1.60;;
77085;SDS011;66014;53.134;18.006;2023-07-24T09:50:45;4.40;;;1.70;;
77085;SDS011;66014;53.134;18.006;2023-07-24T09:53:17;4.50;;;1.30;;
77085;SDS011;66014;53.134;18.006;2023-07-24T09:55:56;3.60;;;1.50;;
77085;SDS011;66014;53.134;18.006;2023-07-24T09:58:25;6.40;;;1.50;;
77085;SDS011;66014;53.134;18.006;2023-07-24T10:00:52;2.50;;;1.30;;
77085;SDS011;66014;53.134;18.006;2023-07-24T10:03:19;3.00;;;1.50;;
77085;SDS011;66014;53.134;18.006;2023-07-24T10:05:47;3.10;;;1.50;;
77085;SDS011;66014;53.134;18.006;2023-07-24T10:08:14;4.00;;;1.70;;
77085;SDS011;66014;53.134;18.006;2023-07-24T10:10:43;4.90;;;1.80;;
77085;SDS011;66014;53.134;18.006;2023-07-24T10:13:09;3.80;;;1.70;;
77085;SDS011;66014;53.134;18.006;2023-07-24T10:15:39;5.50;;;1.80;;
77085;SDS011;66014;53.134;18.006;2023-07-24T10:18:09;4.20;;;2.00;;
77085;SDS011;66014;53.134;18.006;2023-07-24T10:20:37;3.50;;;1.60;;
77085;SDS011;66014;53.134;18.006;2023-07-24T10:23:06;3.50;;;2.00;;
77085;SDS011;66014;53.134;18.006;2023-07-24T10:25:37;5.80;;;2.00;;
77085;SDS011;66014;53.134;18.006;2023-07-24T10:28:10;2.80;;;1.60;;
77085;SDS011;66014;53.134;18.006;2023-07-24T10:30:37;3.40;;;1.70;;
77085;SDS011;66014;53.134;18.006;2023-07-24T10:38:32;6.70;;;1.80;;
77085;SDS011;66014;53.134;18.006;2023-07-24T10:41:03;3.80;;;1.80;;
77085;SDS011;66014;53.134;18.006;2023-07-24T10:43:47;4.40;;;1.80;;
77085;SDS011;66014;53.134;18.006;2023-07-24T10:46:16;4.30;;;1.70;;
77085;SDS011;66014;53.134;18.006;2023-07-24T10:48:45;2.90;;;1.70;;
77085;SDS011;66014;53.134;18.006;2023-07-24T10:51:13;2.90;;;1.80;;
77085;SDS011;66014;53.134;18.006;2023-07-24T10:53:47;2.70;;;1.40;;
77085;SDS011;66014;53.134;18.006;2023-07-24T10:56:14;4.20;;;1.90;;
77085;SDS011;66014;53.134;18.006;2023-07-24T10:58:41;3.40;;;1.80;;
77085;SDS011;66014;53.134;18.006;2023-07-24T11:01:08;2.60;;;1.50;;
77085;SDS011;66014;53.134;18.006;2023-07-24T11:03:36;2.80;;;1.60;;
77085;SDS011;66014;53.134;18.006;2023-07-24T11:06:03;3.40;;;1.70;;
77085;SDS011;66014;53.134;18.006;2023-07-24T11:08:29;3.60;;;1.80;;
77085;SDS011;66014;53.134;18.006;2023-07-24T11:10:58;4.80;;;1.80;;
77085;SDS011;66014;53.134;18.006;2023-07-24T11:13:25;4.20;;;1.90;;
77085;SDS011;66014;53.134;18.006;2023-07-24T11:15:52;3.80;;;1.90;;
77085;SDS011;66014;53.134;18.006;2023-07-24T11:18:19;3.00;;;1.70;;
77085;SDS011;66014;53.134;18.006;2023-07-24T11:20:51;2.50;;;1.50;;
77085;SDS011;66014;53.134;18.006;2023-07-24T11:23:18;3.50;;;1.80;;
77085;SDS011;66014;53.134;18.006;2023-07-24T11:25:44;2.90;;;1.40;;
77085;SDS011;66014;53.134;18.006;2023-07-24T11:28:13;4.50;;;1.60;;
77085;SDS011;66014;53.134;18.006;2023-07-24T11:30:40;2.30;;;1.40;;
77085;SDS011;66014;53.134;18.006;2023-07-24T11:33:08;3.70;;;1.70;;
77085;SDS011;66014;53.134;18.006;2023-07-24T11:35:40;3.10;;;1.80;;
77085;SDS011;66014;53.134;18.006;2023-07-24T11:38:08;2.70;;;1.40;;
77085;SDS011;66014;53.134;18.006;2023-07-24T11:40:39;3.40;;;1.60;;
77085;SDS011;66014;53.134;18.006;2023-07-24T11:45:46;2.90;;;1.70;;
77085;SDS011;66014;53.134;18.006;2023-07-24T11:48:18;5.80;;;1.40;;
77085;SDS011;66014;53.134;18.006;2023-07-24T11:50:46;2.50;;;1.30;;
77085;SDS011;66014;53.134;18.006;2023-07-24T11:53:26;4.80;;;1.50;;
77085;SDS011;66014;53.134;18.006;2023-07-24T11:55:53;2.50;;;1.30;;
77085;SDS011;66014;53.134;18.006;2023-07-24T11:58:38;2.50;;;1.30;;
77085;SDS011;66014;53.134;18.006;2023-07-24T12:01:03;2.40;;;1.20;;
77085;SDS011;66014;53.134;18.006;2023-07-24T12:03:29;3.00;;;1.30;;
77085;SDS011;66014;53.134;18.006;2023-07-24T12:05:55;2.20;;;1.40;;
77085;SDS011;66014;53.134;18.006;2023-07-24T12:08:29;2.10;;;1.20;;
77085;SDS011;66014;53.134;18.006;2023-07-24T12:11:00;3.80;;;1.30;;
77085;SDS011;66014;53.134;18.006;2023-07-24T12:13:27;2.30;;;1.40;;
77085;SDS011;66014;53.134;18.006;2023-07-24T12:15:54;3.80;;;1.50;;
77085;SDS011;66014;53.134;18.006;2023-07-24T12:18:20;3.00;;;1.30;;
77085;SDS011;66014;53.134;18.006;2023-07-24T12:20:45;2.30;;;1.30;;
77085;SDS011;66014;53.134;18.006;2023-07-24T12:23:12;3.70;;;1.60;;
77085;SDS011;66014;53.134;18.006;2023-07-24T12:25:38;2.50;;;1.30;;
77085;SDS011;66014;53.134;18.006;2023-07-24T12:28:04;2.40;;;1.40;;
77085;SDS011;66014;53.134;18.006;2023-07-24T12:30:37;2.70;;;1.50;;
77085;SDS011;66014;53.134;18.006;2023-07-24T12:33:02;2.90;;;1.30;;
77085;SDS011;66014;53.134;18.006;2023-07-24T12:35:28;3.40;;;1.30;;
77085;SDS011;66014;53.134;18.006;2023-07-24T12:37:55;2.50;;;1.10;;
77085;SDS011;66014;53.134;18.006;2023-07-24T12:40:21;3.10;;;1.40;;
77085;SDS011;66014;53.134;18.006;2023-07-24T12:42:47;3.30;;;1.70;;
77085;SDS011;66014;53.134;18.006;2023-07-24T12:45:13;3.10;;;1.40;;
77085;SDS011;66014;53.134;18.006;2023-07-24T12:47:38;3.10;;;1.50;;
77085;SDS011;66014;53.134;18.006;2023-07-24T12:50:04;2.30;;;1.30;;
77085;SDS011;66014;53.134;18.006;2023-07-24T12:56:19;2.80;;;1.50;;
77085;SDS011;66014;53.134;18.006;2023-07-24T12:58:45;2.30;;;1.30;;
77085;SDS011;66014;53.134;18.006;2023-07-24T13:01:10;4.10;;;1.60;;
77085;SDS011;66014;53.134;18.006;2023-07-24T13:03:37;3.50;;;1.50;;
77085;SDS011;66014;53.134;18.006;2023-07-24T13:06:03;3.00;;;1.50;;
77085;SDS011;66014;53.134;18.006;2023-07-24T13:08:28;4.10;;;1.80;;
77085;SDS011;66014;53.134;18.006;2023-07-24T13:10:55;4.30;;;1.50;;
77085;SDS011;66014;53.134;18.006;2023-07-24T13:13:24;3.10;;;1.30;;
77085;SDS011;66014;53.134;18.006;2023-07-24T13:15:50;4.00;;;1.60;;
77085;SDS011;66014;53.134;18.006;2023-07-24T13:18:16;6.00;;;1.40;;
77085;SDS011;66014;53.134;18.006;2023-07-24T13:20:44;3.40;;;1.60;;
77085;SDS011;66014;53.134;18.006;2023-07-24T13:23:10;3.10;;;1.40;;
77085;SDS011;66014;53.134;18.006;2023-07-24T13:25:36;3.90;;;1.40;;
77085;SDS011;66014;53.134;18.006;2023-07-24T13:28:04;3.30;;;1.50;;
77085;SDS011;66014;53.134;18.006;2023-07-24T13:30:32;2.20;;;1.20;;
77085;SDS011;66014;53.134;18.006;2023-07-24T13:33:00;2.30;;;1.20;;
77085;SDS011;66014;53.134;18.006;2023-07-24T13:35:26;3.40;;;1.90;;
77085;SDS011;66014;53.134;18.006;2023-07-24T13:38:01;3.30;;;1.50;;
77085;SDS011;66014;53.134;18.006;2023-07-24T13:40:28;3.10;;;1.50;;
77085;SDS011;66014;53.134;18.006;2023-07-24T13:43:03;3.00;;;1.40;;
77085;SDS011;66014;53.134;18.006;2023-07-24T13:45:44;3.10;;;1.50;;
77085;SDS011;66014;53.134;18.006;2023-07-24T13:48:28;3.70;;;1.60;;
77085;SDS011;66014;53.134;18.006;2023-07-24T13:50:58;3.30;;;1.90;;
77085;SDS011;66014;53.134;18.006;2023-07-24T13:53:24;6.80;;;1.90;;
77085;SDS011;66014;53.134;18.006;2023-07-24T13:55:51;3.10;;;1.60;;
77085;SDS011;66014;53.134;18.006;2023-07-24T13:58:18;4.30;;;1.70;;
77085;SDS011;66014;53.134;18.006;2023-07-24T14:00:43;3.40;;;1.70;;
77085;SDS011;66014;53.134;18.006;2023-07-24T14:03:09;3.80;;;1.70;;
77085;SDS011;66014;53.134;18.006;2023-07-24T14:05:37;4.60;;;2.00;;
77085;SDS011;66014;53.134;18.006;2023-07-24T14:08:07;3.20;;;1.80;;
77085;SDS011;66014;53.134;18.006;2023-07-24T14:10:34;4.60;;;2.00;;
77085;SDS011;66014;53.134;18.006;2023-07-24T14:13:00;4.20;;;2.00;;
77085;SDS011;66014;53.134;18.006;2023-07-24T14:15:26;3.70;;;1.90;;
77085;SDS011;66014;53.134;18.006;2023-07-24T14:17:58;5.50;;;1.90;;
77085;SDS011;66014;53.134;18.006;2023-07-24T14:23:24;2.80;;;1.60;;
77085;SDS011;66014;53.134;18.006;2023-07-24T14:25:49;4.20;;;1.90;;
77085;SDS011;66014;53.134;18.006;2023-07-24T14:28:15;3.40;;;1.80;;
77085;SDS011;66014;53.134;18.006;2023-07-24T14:30:41;3.00;;;1.80;;
77085;SDS011;66014;53.134;18.006;2023-07-24T14:33:07;4.40;;;2.20;;
77085;SDS011;66014;53.134;18.006;2023-07-24T14:35:33;5.10;;;2.10;;
77085;SDS011;66014;53.134;18.006;2023-07-24T14:38:05;4.90;;;2.20;;
77085;SDS011;66014;53.134;18.006;2023-07-24T14:40:31;4.10;;;2.30;;
77085;SDS011;66014;53.134;18.006;2023-07-24T14:42:57;5.60;;;2.30;;
77085;SDS011;66014;53.134;18.006;2023-07-24T14:45:23;4.50;;;2.50;;
77085;SDS011;66014;53.134;18.006;2023-07-24T14:47:48;3.70;;;2.00;;
77085;SDS011;66014;53.134;18.006;2023-07-24T14:50:14;5.20;;;2.10;;
77085;SDS011;66014;53.134;18.006;2023-07-24T14:52:40;5.10;;;2.60;;
77085;SDS011;66014;53.134;18.006;2023-07-24T14:55:06;4.60;;;2.30;;
77085;SDS011;66014;53.134;18.006;2023-07-24T14:57:32;4.40;;;2.70;;